Time;durP1;ratioP1;P1;durP2;ratioP2;P2;SDS_P1;SDS_P2;PMS_P1;PMS_P2;Temp;Humidity;BMP_temperature;BMP_pressure;BME280_temperature;BME280_humidity;BME280_pressure;Samples;Min_cycle;Max_cycle;Signal;HPM_P1;HPM_P2
2022/01/06 00:02:03;;;;;;;11.50;3.35;;;4.70;99.90;;;4.70;55.34;97597.00;4969887;28;20042;-81
2022/01/06 00:04:29;;;;;;;6.60;4.78;;;4.70;99.90;;;4.72;55.01;97590.31;4967336;28;20042;-81
2022/01/06 00:06:55;;;;;;;9.20;3.75;;;4.70;99.90;;;4.82;55.54;97599.47;4969465;28;20072;-81
2022/01/06 00:09:21;;;;;;;7.35;4.57;;;4.70;99.90;;;4.83;54.97;97585.75;4981848;28;20129;-81
2022/01/06 00:11:47;;;;;;;8.40;3.25;;;4.70;99.90;;;4.86;55.39;97587.09;4955425;28;20833;-81
2022/01/06 00:14:21;;;;;;;11.88;4.55;;;4.80;99.90;;;4.81;54.91;97595.16;4953855;28;20062;-81
2022/01/06 00:24:47;;;;;;;9.68;3.80;;;4.80;99.90;;;4.91;55.54;97576.34;4962039;28;20105;-80
2022/01/06 00:27:14;;;;;;;9.32;4.40;;;4.80;99.90;;;4.85;54.42;97575.56;4961280;28;20117;-81
2022/01/06 00:29:41;;;;;;;11.77;3.80;;;4.80;99.90;;;4.91;54.68;97571.81;4976979;28;20050;-81
2022/01/06 00:32:07;;;;;;;8.70;3.40;;;4.90;99.90;;;4.92;54.51;97584.16;4940641;28;20193;-81
2022/01/06 00:34:33;;;;;;;8.50;3.65;;;4.90;99.90;;;4.94;54.87;97582.03;4962278;28;20100;-81
2022/01/06 00:37:01;;;;;;;11.52;3.58;;;4.90;99.90;;;4.99;54.80;97587.41;4960018;28;20042;-81
2022/01/06 00:39:28;;;;;;;11.20;3.97;;;4.90;99.90;;;5.00;55.00;97590.91;4953346;28;20081;-81
2022/01/06 00:41:57;;;;;;;7.00;3.67;;;5.00;99.90;;;4.98;54.65;97601.91;4958993;28;20121;-81
2022/01/06 00:44:23;;;;;;;11.20;3.53;;;4.90;99.90;;;4.96;54.91;97593.31;4961531;28;20042;-81
2022/01/06 00:46:50;;;;;;;6.25;2.83;;;4.90;99.90;;;4.94;54.58;97600.84;4973463;28;20088;-81
2022/01/06 00:49:22;;;;;;;7.45;3.15;;;5.00;99.90;;;4.96;54.75;97606.75;4945015;28;20450;-81
2022/01/06 00:51:48;;;;;;;5.95;2.92;;;5.00;99.90;;;4.95;54.30;97599.75;4955879;28;20184;-81
2022/01/06 00:54:14;;;;;;;7.35;3.53;;;5.00;99.90;;;4.94;54.32;97606.22;4972357;28;20046;-81
2022/01/06 00:56:40;;;;;;;12.73;3.85;;;4.90;99.90;;;4.93;55.05;97596.50;4973957;28;20193;-81
2022/01/06 00:59:06;;;;;;;7.38;3.63;;;4.90;99.90;;;4.93;55.19;97598.41;4954676;28;20418;-81
2022/01/06 01:01:32;;;;;;;10.82;4.47;;;5.00;99.90;;;4.88;55.11;97609.94;4961144;28;20046;-81
2022/01/06 01:03:58;;;;;;;7.78;3.75;;;4.90;99.90;;;4.82;54.87;97602.16;4958627;28;20047;-81
2022/01/06 01:06:24;;;;;;;7.82;3.38;;;4.90;99.90;;;4.80;55.52;97599.72;4958245;28;20326;-81
2022/01/06 01:08:50;;;;;;;6.05;3.45;;;4.80;99.90;;;4.72;55.42;97597.56;4970427;28;20049;-81
2022/01/06 01:11:16;;;;;;;6.38;3.05;;;4.80;99.90;;;4.70;55.93;97600.50;4972186;28;20086;-81
2022/01/06 01:13:54;;;;;;;13.65;5.75;;;4.80;99.90;;;4.63;55.54;97602.66;4968575;28;20069;-81
2022/01/06 01:16:27;;;;;;;10.88;4.35;;;4.70;99.90;;;4.59;55.64;97590.81;4988915;28;20062;-81
2022/01/06 01:18:56;;;;;;;9.57;4.18;;;4.60;99.90;;;4.54;56.09;97609.59;4973266;28;20041;-81
2022/01/06 01:21:26;;;;;;;9.23;3.85;;;4.60;99.90;;;4.46;56.16;97610.13;4961068;28;20052;-81
2022/01/06 01:23:56;;;;;;;5.70;3.30;;;4.50;99.90;;;4.41;56.43;97600.16;4960274;28;20067;-80
2022/01/06 01:26:24;;;;;;;9.82;3.67;;;4.50;99.90;;;4.39;56.09;97594.22;4953111;28;20042;-80
2022/01/06 01:28:51;;;;;;;9.02;3.80;;;4.50;99.90;;;4.39;56.65;97599.59;4973477;28;20042;-81
2022/01/06 01:33:44;;;;;;;16.77;3.95;;;4.30;99.90;;;4.34;56.71;97602.25;4959111;28;20117;-80
2022/01/06 01:36:13;;;;;;;10.25;3.55;;;4.30;99.90;;;4.29;56.67;97594.19;4954356;28;20048;-81
2022/01/06 01:38:39;;;;;;;8.25;4.28;;;4.30;99.90;;;4.21;57.03;97587.44;4976230;28;20045;-81
2022/01/06 01:41:06;;;;;;;5.85;3.25;;;4.30;99.90;;;4.19;56.85;97594.16;4970200;28;20066;-81
2022/01/06 01:43:32;;;;;;;12.05;3.42;;;4.20;99.90;;;4.11;57.38;97593.56;4973156;28;20128;-81
2022/01/06 01:46:07;;;;;;;8.57;3.63;;;4.20;99.90;;;4.09;56.83;97597.59;4971215;28;20386;-81
2022/01/06 01:48:35;;;;;;;8.55;4.00;;;4.10;99.90;;;4.02;57.18;97600.53;4972925;28;20436;-81
2022/01/06 01:51:02;;;;;;;10.20;4.45;;;4.10;99.90;;;3.98;57.45;97595.94;4972004;28;20462;-81
2022/01/06 01:53:28;;;;;;;9.15;3.65;;;4.00;99.90;;;3.95;58.19;97597.25;4955923;28;20125;-81
2022/01/06 01:55:54;;;;;;;10.13;3.83;;;4.00;99.90;;;3.97;58.40;97602.34;4971307;28;20097;-81
2022/01/06 01:58:20;;;;;;;10.23;3.63;;;4.00;99.90;;;3.95;57.67;97605.31;4972644;28;20462;-81
2022/01/06 02:00:46;;;;;;;7.13;3.15;;;3.90;99.90;;;3.86;58.52;97593.44;4962105;28;20360;-81
2022/01/06 02:03:12;;;;;;;7.07;3.15;;;3.90;99.90;;;3.88;58.24;97607.41;4941817;28;20421;-81
2022/01/06 02:05:38;;;;;;;7.47;3.75;;;3.90;99.90;;;3.91;58.30;97612.25;4955223;28;20451;-81
2022/01/06 02:08:05;;;;;;;5.53;2.75;;;3.90;99.90;;;3.94;58.03;97614.41;4956678;28;20074;-81
2022/01/06 02:10:32;;;;;;;13.82;3.30;;;3.90;99.90;;;3.98;58.25;97618.19;4958032;28;20045;-81
2022/01/06 02:13:00;;;;;;;7.72;4.28;;;3.90;99.90;;;3.99;58.23;97614.44;4942258;28;20199;-81
2022/01/06 02:15:26;;;;;;;15.80;3.50;;;3.90;99.90;;;4.04;57.99;97608.28;4957635;28;20041;-81
2022/01/06 02:17:52;;;;;;;7.65;3.67;;;4.00;99.90;;;4.12;57.93;97614.00;4956652;28;20752;-81
2022/01/06 02:20:20;;;;;;;10.05;3.55;;;4.10;99.90;;;4.24;57.96;97626.38;4960528;28;20042;-81
2022/01/06 02:22:46;;;;;;;6.10;2.65;;;4.20;99.90;;;4.33;57.46;97630.19;4953600;28;20138;-81
2022/01/06 02:25:29;;;;;;;11.20;3.42;;;4.20;99.90;;;4.41;57.45;97624.31;4974188;28;20494;-81
2022/01/06 02:27:56;;;;;;;8.43;3.15;;;4.30;99.90;;;4.44;57.25;97637.22;4959734;28;20050;-81
2022/01/06 02:30:23;;;;;;;21.23;3.70;;;4.40;99.90;;;4.48;56.85;97634.84;4941355;28;20466;-81
2022/01/06 02:32:49;;;;;;;8.90;2.90;;;4.40;99.90;;;4.51;57.18;97632.41;4973638;28;20375;-81
2022/01/06 02:35:17;;;;;;;7.65;2.45;;;4.50;99.90;;;4.55;56.72;97635.38;4969671;28;20053;-82
2022/01/06 02:37:44;;;;;;;11.50;3.22;;;4.50;99.90;;;4.57;56.75;97634.03;4958152;28;20046;-81
2022/01/06 02:40:15;;;;;;;9.20;3.13;;;4.50;99.90;;;4.69;57.08;97636.50;4977885;28;20054;-81
2022/01/06 02:42:48;;;;;;;11.13;3.80;;;4.60;99.90;;;4.75;55.76;97637.31;4954935;28;20049;-82
2022/01/06 02:45:14;;;;;;;8.02;2.92;;;4.70;99.90;;;4.75;56.16;97648.06;4954945;28;20630;-81
2022/01/06 02:47:40;;;;;;;10.30;2.92;;;4.70;99.90;;;4.76;55.90;97644.31;4973129;28;20494;-82
2022/01/06 02:50:08;;;;;;;11.27;3.47;;;4.70;99.90;;;4.76;56.06;97633.59;4972794;28;20118;-81
2022/01/06 02:52:34;;;;;;;10.20;3.58;;;4.70;99.90;;;4.82;55.96;97621.75;4982423;28;20125;-81
2022/01/06 02:55:00;;;;;;;8.57;3.33;;;4.80;99.90;;;4.83;55.74;97623.38;4957321;28;20069;-81
2022/01/06 02:57:26;;;;;;;7.75;3.17;;;4.80;99.90;;;4.81;55.90;97613.94;4955549;28;20047;-81
2022/01/06 02:59:52;;;;;;;5.45;3.13;;;4.80;99.90;;;4.82;55.76;97611.00;4970336;28;20034;-81
2022/01/06 03:02:18;;;;;;;6.20;2.85;;;4.80;99.90;;;4.85;56.27;97620.44;4970405;28;20121;-81
2022/01/06 03:04:44;;;;;;;8.55;2.03;;;4.90;99.90;;;4.90;55.52;97617.75;4949518;28;20502;-81
2022/01/06 03:07:10;;;;;;;9.77;2.60;;;4.90;99.90;;;4.89;56.08;97613.47;4973077;28;20120;-81
2022/01/06 03:09:38;;;;;;;7.10;2.45;;;5.00;99.90;;;4.93;55.74;97609.94;4957634;28;20125;-81
2022/01/06 03:12:18;;;;;;;7.80;3.30;;;4.90;99.90;;;4.97;55.91;97615.63;4970224;28;20498;-81
2022/01/06 03:14:44;;;;;;;5.28;2.42;;;4.90;99.90;;;5.01;55.10;97619.38;4958426;28;20060;-81
2022/01/06 03:17:10;;;;;;;8.95;2.88;;;5.00;99.90;;;4.99;54.84;97619.66;4974989;28;20467;-81
2022/01/06 03:19:36;;;;;;;6.97;2.40;;;5.00;99.90;;;5.02;55.39;97609.44;4971467;28;20078;-81
2022/01/06 03:22:02;;;;;;;10.48;2.83;;;5.00;99.90;;;5.07;55.48;97612.94;4968321;28;20121;-80
2022/01/06 03:24:28;;;;;;;6.85;3.08;;;5.00;99.90;;;5.06;54.67;97599.75;4970359;28;20058;-81
2022/01/06 03:26:54;;;;;;;9.32;3.28;;;5.10;99.90;;;5.11;54.50;97611.31;4955438;28;20042;-81
2022/01/06 03:29:21;;;;;;;8.57;3.15;;;5.10;99.90;;;5.12;55.29;97604.09;4952990;28;20081;-80
2022/01/06 03:31:46;;;;;;;5.90;2.60;;;5.10;99.90;;;5.12;54.51;97602.19;4968420;28;20541;-80
2022/01/06 03:34:12;;;;;;;9.02;2.05;;;5.10;99.90;;;5.15;54.51;97604.34;4975784;28;20077;-80
2022/01/06 03:36:38;;;;;;;6.55;1.80;;;5.20;99.90;;;5.16;55.11;97594.41;4936026;28;20125;-81
2022/01/06 03:39:04;;;;;;;3.72;2.30;;;5.10;99.90;;;5.18;54.23;97601.13;4956536;28;20409;-80
2022/01/06 03:41:30;;;;;;;8.90;3.28;;;5.20;99.90;;;5.18;54.02;97597.63;4956813;28;20060;-81
2022/01/06 03:43:56;;;;;;;8.95;2.20;;;5.20;99.90;;;5.21;54.57;97603.25;4963268;28;20042;-80
2022/01/06 03:46:22;;;;;;;4.60;2.38;;;5.20;99.90;;;5.16;53.42;97605.16;4958446;28;20043;-80
2022/01/06 03:48:48;;;;;;;7.80;2.63;;;5.20;99.90;;;5.13;53.35;97600.31;4957078;28;20030;-81
2022/01/06 03:51:14;;;;;;;7.13;2.47;;;5.30;99.90;;;5.17;54.78;97598.72;4976818;28;20043;-80
2022/01/06 03:53:40;;;;;;;5.45;2.80;;;5.20;99.90;;;5.22;54.70;97606.78;4958392;28;20085;-81
2022/01/06 03:56:06;;;;;;;5.28;2.83;;;5.20;99.90;;;5.23;54.44;97611.06;4959087;28;20445;-80
2022/01/06 03:58:32;;;;;;;10.60;3.10;;;5.20;99.90;;;5.27;54.71;97614.06;4957663;28;20489;-80
2022/01/06 04:00:58;;;;;;;4.88;2.60;;;5.30;99.90;;;5.31;54.56;97629.34;4959046;28;20102;-81
2022/01/06 04:03:24;;;;;;;10.55;1.95;;;5.30;99.90;;;5.27;54.06;97619.44;4958320;28;20046;-80
2022/01/06 04:05:50;;;;;;;14.85;2.75;;;5.30;99.90;;;5.30;54.45;97616.19;4976003;28;20129;-80
2022/01/06 04:08:16;;;;;;;7.38;2.38;;;5.30;99.90;;;5.31;54.96;97623.97;4974135;28;20101;-81
2022/01/06 04:10:42;;;;;;;8.23;2.50;;;5.30;99.90;;;5.34;54.78;97622.63;4958658;28;20100;-81
2022/01/06 04:13:08;;;;;;;3.63;2.00;;;5.30;99.90;;;5.31;54.24;97634.72;4970638;28;20241;-80
2022/01/06 04:15:34;;;;;;;8.98;2.85;;;5.30;99.90;;;5.34;54.59;97620.78;4961515;28;20069;-80
2022/01/06 04:18:00;;;;;;;4.68;2.70;;;5.40;99.90;;;5.39;54.48;97628.84;4973196;28;20096;-81
2022/01/06 04:20:26;;;;;;;6.68;3.15;;;5.40;99.90;;;5.53;54.33;97631.00;4958883;28;20100;-81
2022/01/06 04:22:52;;;;;;;7.57;2.97;;;5.40;99.90;;;5.51;54.03;97631.25;4969976;28;20038;-81
2022/01/06 04:25:18;;;;;;;8.90;5.13;;;5.40;99.90;;;5.52;54.44;97630.19;4976772;28;20085;-81
2022/01/06 04:27:44;;;;;;;6.05;2.72;;;5.50;99.90;;;5.49;53.80;97633.41;4959228;28;20049;-81
2022/01/06 04:30:11;;;;;;;3.92;2.25;;;5.50;99.90;;;5.52;54.14;97622.13;4957722;28;20065;-81
2022/01/06 04:32:37;;;;;;;9.35;3.22;;;5.50;99.90;;;5.56;54.27;97633.13;4956725;28;20034;-80
2022/01/06 04:35:04;;;;;;;11.32;3.38;;;5.50;99.90;;;5.56;54.45;97631.25;4958008;28;20039;-81
2022/01/06 04:37:30;;;;;;;6.15;2.35;;;5.50;99.90;;;5.53;53.77;97639.06;4974340;28;20046;-80
2022/01/06 04:39:55;;;;;;;5.65;2.75;;;5.60;99.90;;;5.47;53.88;97632.06;4924020;28;20081;-80
2022/01/06 04:42:22;;;;;;;11.15;5.00;;;5.50;99.90;;;5.51;54.59;97638.53;4956063;28;20117;-80
2022/01/06 04:44:47;;;;;;;9.55;2.95;;;5.50;99.90;;;5.53;54.78;97634.47;4955659;28;20042;-80
2022/01/06 04:47:13;;;;;;;6.43;3.10;;;5.40;99.90;;;5.51;54.59;97643.91;4957520;28;20461;-81
2022/01/06 04:49:39;;;;;;;12.05;3.13;;;5.50;99.90;;;5.49;54.27;97643.34;4964015;28;20042;-80
2022/01/06 04:52:05;;;;;;;11.32;3.25;;;5.50;99.90;;;5.50;54.73;97651.16;4975994;28;20076;-80
2022/01/06 04:54:32;;;;;;;8.18;2.47;;;5.50;99.90;;;5.49;54.53;97646.03;4955395;28;20038;-80
2022/01/06 04:56:58;;;;;;;4.55;2.33;;;5.50;99.90;;;5.51;54.72;97657.34;4957995;28;20118;-81
2022/01/06 04:59:24;;;;;;;7.90;3.25;;;5.50;99.90;;;5.45;54.74;97656.53;4967634;28;20042;-80
2022/01/06 05:01:49;;;;;;;8.00;2.97;;;5.50;99.90;;;5.48;54.43;97666.75;4973351;28;20490;-81
2022/01/06 05:04:15;;;;;;;5.55;2.90;;;5.50;99.90;;;5.47;54.95;97664.31;4973138;28;20573;-80
2022/01/06 05:06:41;;;;;;;5.32;2.95;;;5.50;99.90;;;5.49;54.51;97667.56;4957755;28;20043;-80
2022/01/06 05:09:07;;;;;;;9.18;2.45;;;5.50;99.90;;;5.53;54.79;97661.38;4955432;28;20077;-81
2022/01/06 05:11:33;;;;;;;6.28;2.35;;;5.50;99.90;;;5.49;54.27;97668.38;4970843;28;20058;-81
2022/01/06 05:13:59;;;;;;;6.85;2.70;;;5.50;99.90;;;5.47;55.04;97657.09;4972020;28;20457;-81
2022/01/06 05:16:25;;;;;;;8.85;3.13;;;5.50;99.90;;;5.50;54.99;97664.63;4955940;28;20073;-80
2022/01/06 05:18:51;;;;;;;10.35;3.33;;;5.40;99.90;;;5.48;55.18;97656.00;4972117;28;20057;-80
2022/01/06 05:21:17;;;;;;;5.78;3.13;;;5.40;99.90;;;5.49;54.74;97662.19;4961681;28;20077;-80
2022/01/06 05:23:43;;;;;;;8.38;3.40;;;5.40;99.90;;;5.47;54.69;97662.47;4977135;28;20046;-80
2022/01/06 05:26:09;;;;;;;11.60;3.53;;;5.50;99.90;;;5.43;54.68;97664.06;4972712;28;20066;-81
2022/01/06 05:28:35;;;;;;;5.40;2.60;;;5.40;99.90;;;5.48;54.85;97660.59;4973136;28;20111;-81
2022/01/06 05:31:01;;;;;;;7.10;3.22;;;5.40;99.90;;;5.44;54.90;97671.88;4970127;28;20095;-81
2022/01/06 05:33:27;;;;;;;5.15;2.75;;;5.40;99.90;;;5.41;54.59;97679.66;4974796;28;20089;-80
2022/01/06 05:35:53;;;;;;;5.90;2.92;;;5.40;99.90;;;5.36;54.99;97677.75;4971464;28;20129;-80
2022/01/06 05:38:19;;;;;;;11.35;3.33;;;5.30;99.90;;;5.31;55.36;97682.34;4970922;28;20118;-81
2022/01/06 05:40:45;;;;;;;7.10;2.92;;;5.30;99.90;;;5.29;55.35;97688.00;4954719;28;20178;-81
2022/01/06 05:43:11;;;;;;;5.75;3.30;;;5.30;99.90;;;5.26;55.33;97690.38;4951960;28;20516;-81
2022/01/06 05:45:37;;;;;;;5.05;2.53;;;5.20;99.90;;;5.16;55.83;97688.47;4957661;28;20043;-81
2022/01/06 05:48:04;;;;;;;3.85;2.88;;;5.10;99.90;;;5.14;56.21;97683.38;4951193;28;20038;-81
2022/01/06 05:50:30;;;;;;;3.80;2.70;;;5.10;99.90;;;5.15;55.90;97684.19;4948718;28;20062;-81
2022/01/06 05:52:55;;;;;;;8.10;3.10;;;5.10;99.90;;;5.18;56.31;97683.66;4952045;28;20035;-83
2022/01/06 05:55:22;;;;;;;8.88;3.33;;;5.10;99.90;;;5.34;55.75;97690.69;4940544;28;20053;-83
2022/01/06 05:57:50;;;;;;;11.75;5.68;;;5.20;99.90;;;5.42;55.70;97686.66;4930555;28;20053;-83
2022/01/06 06:00:16;;;;;;;5.88;3.83;;;5.20;99.90;;;5.40;55.30;97697.69;4936037;28;20049;-85
2022/01/06 06:02:42;;;;;;;10.48;3.08;;;5.30;99.90;;;5.41;55.24;97691.22;4935793;28;20117;-85
2022/01/06 06:05:08;;;;;;;9.45;3.40;;;5.40;99.90;;;5.41;55.54;97696.59;4935543;28;20073;-86
2022/01/06 06:07:34;;;;;;;8.75;2.78;;;5.30;99.90;;;5.40;55.04;97705.75;4941110;28;20066;-86
2022/01/06 06:10:00;;;;;;;12.32;3.60;;;5.30;99.90;;;5.37;55.33;97703.59;4935262;28;20078;-86
2022/01/06 06:12:26;;;;;;;7.32;3.13;;;5.30;99.90;;;5.35;56.01;97700.38;4953082;28;20105;-85
2022/01/06 06:14:52;;;;;;;6.75;3.15;;;5.30;99.90;;;5.43;55.18;97702.53;4934812;28;20113;-85
2022/01/06 06:17:18;;;;;;;9.82;3.70;;;5.40;99.90;;;5.39;55.34;97711.38;4938355;28;20097;-85
2022/01/06 06:19:44;;;;;;;7.03;2.53;;;5.40;99.90;;;5.39;55.49;97712.22;4933882;28;20090;-85
2022/01/06 06:22:10;;;;;;;4.78;2.53;;;5.40;99.90;;;5.43;55.29;97707.09;4949583;28;20038;-85
2022/01/06 06:24:37;;;;;;;11.38;3.70;;;5.40;99.90;;;5.41;55.61;97709.25;4937719;28;20051;-85
2022/01/06 06:27:04;;;;;;;7.35;3.42;;;5.40;99.90;;;5.39;55.30;97709.53;4953380;28;20043;-85
2022/01/06 06:29:30;;;;;;;7.03;3.08;;;5.40;99.90;;;5.38;55.40;97726.72;4930330;28;20055;-85
2022/01/06 06:31:56;;;;;;;8.43;3.42;;;5.40;99.90;;;5.38;55.50;97721.34;4949635;28;20050;-85
2022/01/06 06:34:22;;;;;;;10.40;3.05;;;5.40;99.90;;;5.30;55.59;97732.63;4935758;28;20514;-85
2022/01/06 06:36:48;;;;;;;8.73;2.85;;;5.30;99.90;;;5.31;56.25;97741.50;4932723;28;20382;-85
2022/01/06 06:39:14;;;;;;;5.53;2.58;;;5.30;99.90;;;5.33;55.73;97740.16;4937632;28;20103;-85
2022/01/06 06:41:40;;;;;;;6.32;3.08;;;5.30;99.90;;;5.38;56.31;97740.16;4949067;28;20446;-85
2022/01/06 06:44:06;;;;;;;9.30;3.25;;;5.30;99.90;;;5.40;56.28;97748.78;4948493;28;20031;-85
2022/01/06 06:46:32;;;;;;;8.13;3.40;;;5.40;99.90;;;5.43;56.02;97740.16;4934340;28;20046;-85
2022/01/06 06:48:58;;;;;;;7.95;3.20;;;5.40;99.90;;;5.42;56.10;97752.03;4964019;28;20517;-85
2022/01/06 06:51:23;;;;;;;10.40;3.72;;;5.50;99.90;;;5.38;56.51;97752.81;4948287;28;20070;-85
2022/01/06 06:53:50;;;;;;;10.55;3.05;;;5.40;99.90;;;5.36;56.50;97766.50;4964511;28;20480;-85
2022/01/06 06:56:15;;;;;;;12.38;3.15;;;5.40;99.90;;;5.38;56.93;97763.56;4946273;28;20121;-85
2022/01/06 06:58:41;;;;;;;5.80;3.72;;;5.40;99.90;;;5.43;56.75;97768.94;4961712;28;20149;-85
2022/01/06 07:01:07;;;;;;;5.88;3.63;;;5.40;99.90;;;5.44;56.61;97765.19;4947547;28;20129;-85
2022/01/06 07:03:33;;;;;;;11.07;3.58;;;5.40;99.90;;;5.54;56.57;97775.16;4948687;28;20039;-85
2022/01/06 07:05:59;;;;;;;7.13;2.67;;;5.50;99.90;;;5.53;56.57;97773.56;4964012;28;20148;-85
2022/01/06 07:08:25;;;;;;;7.10;3.38;;;5.50;99.90;;;5.50;56.87;97772.19;4962561;28;20587;-85
2022/01/06 07:10:51;;;;;;;9.57;3.33;;;5.50;99.90;;;5.45;56.31;97753.38;4965572;28;20147;-85
2022/01/06 07:13:18;;;;;;;8.82;3.67;;;5.60;99.90;;;5.40;56.50;97775.66;4967114;28;20388;-85
2022/01/06 07:15:45;;;;;;;10.57;3.10;;;5.50;99.90;;;5.50;56.94;97784.84;4966124;28;20560;-85
2022/01/06 07:18:11;;;;;;;9.05;3.78;;;5.50;99.90;;;5.53;57.10;97789.69;4965950;28;20053;-85
2022/01/06 07:20:37;;;;;;;8.15;3.53;;;5.50;99.90;;;5.57;57.26;97798.84;4947951;28;20299;-85
2022/01/06 07:23:03;;;;;;;8.95;3.67;;;5.60;99.90;;;5.62;57.44;97796.16;4952543;28;20534;-85
2022/01/06 07:25:29;;;;;;;6.85;3.75;;;5.60;99.90;;;5.61;57.53;97792.66;4951457;28;20054;-85
2022/01/06 07:27:55;;;;;;;8.75;3.78;;;5.60;99.90;;;5.58;57.47;97797.78;4967736;28;20043;-85
2022/01/06 07:30:22;;;;;;;10.15;3.72;;;5.60;99.90;;;5.58;57.53;97792.41;4951026;28;20252;-85
2022/01/06 07:32:50;;;;;;;5.90;3.75;;;5.60;99.90;;;5.65;57.45;97792.94;4931572;28;20055;-85
2022/01/06 07:35:19;;;;;;;6.78;3.03;;;5.60;99.90;;;5.70;57.34;97798.34;4952444;28;20042;-85
2022/01/06 07:37:47;;;;;;;9.13;3.90;;;5.70;99.90;;;5.67;57.47;97798.84;4950148;28;20129;-85
2022/01/06 07:40:13;;;;;;;9.00;4.75;;;5.70;99.90;;;5.63;57.20;97803.97;4962832;28;20059;-85
2022/01/06 07:42:39;;;;;;;7.30;3.50;;;5.70;99.90;;;5.65;57.93;97796.44;4958353;28;20043;-85
2022/01/06 07:45:06;;;;;;;11.65;4.80;;;5.70;99.90;;;5.65;57.34;97795.66;4936913;28;20125;-85
2022/01/06 07:47:35;;;;;;;7.88;3.45;;;5.70;99.90;;;5.66;57.53;97803.44;4917313;28;20047;-85
2022/01/06 07:50:01;;;;;;;11.30;4.55;;;5.80;99.90;;;5.66;57.96;97805.31;4967914;28;20046;-85
2022/01/06 07:52:27;;;;;;;11.40;4.97;;;5.80;99.90;;;5.78;58.16;97805.88;4952298;28;20495;-85
2022/01/06 07:54:53;;;;;;;11.38;4.38;;;6.00;99.90;;;5.89;58.43;97814.78;4935990;28;20125;-85
2022/01/06 07:57:19;;;;;;;10.18;4.07;;;5.90;99.90;;;5.83;57.76;97815.84;4933597;28;20494;-85
2022/01/06 07:59:45;;;;;;;11.02;4.40;;;5.90;99.90;;;5.83;57.76;97813.97;4952239;28;20163;-85
2022/01/06 08:02:11;;;;;;;9.10;4.22;;;6.00;99.90;;;5.90;58.56;97810.19;4933841;28;20477;-85
2022/01/06 08:04:37;;;;;;;12.98;4.72;;;5.90;99.90;;;5.96;58.45;97833.41;4935204;28;20082;-84
2022/01/06 08:07:03;;;;;;;10.48;5.25;;;6.00;99.90;;;6.10;58.52;97829.09;4936303;28;20117;-83
2022/01/06 08:09:29;;;;;;;11.38;5.15;;;6.00;99.90;;;6.02;58.66;97830.44;4969314;28;20054;-83
2022/01/06 08:11:55;;;;;;;14.00;5.30;;;6.10;99.90;;;5.96;59.73;97833.41;4968665;28;20446;-83
2022/01/06 08:14:21;;;;;;;6.93;4.85;;;6.10;99.90;;;6.04;59.92;97832.88;4971956;28;20038;-85
2022/01/06 08:16:47;;;;;;;13.63;5.13;;;6.10;99.90;;;6.11;59.81;97825.34;4943048;28;20078;-85
2022/01/06 08:19:13;;;;;;;9.80;5.38;;;6.20;99.90;;;6.09;59.68;97822.09;4961051;28;20771;-84
2022/01/06 08:21:39;;;;;;;10.25;4.97;;;6.20;99.90;;;6.12;60.50;97840.41;4978774;28;20034;-85
2022/01/06 08:24:05;;;;;;;7.57;5.47;;;6.20;99.90;;;6.07;60.52;97837.72;4938821;28;20113;-85
2022/01/06 08:26:31;;;;;;;14.50;5.70;;;6.30;99.90;;;6.15;60.22;97831.78;4940934;28;20066;-85
2022/01/06 08:28:57;;;;;;;15.70;6.22;;;6.30;99.90;;;6.15;60.11;97829.09;4941273;28;20054;-84
2022/01/06 08:31:23;;;;;;;14.85;5.90;;;6.30;99.90;;;6.30;60.29;97826.41;4956551;28;20042;-84
2022/01/06 08:33:49;;;;;;;13.65;6.32;;;6.30;99.90;;;6.40;60.25;97832.88;4973407;28;20077;-84
2022/01/06 08:36:15;;;;;;;9.95;4.85;;;6.50;99.90;;;6.39;59.45;97842.06;4975951;28;20445;-84
2022/01/06 08:38:44;;;;;;;15.00;5.45;;;6.50;99.90;;;6.24;60.49;97845.53;4942658;28;20404;-85
2022/01/06 08:41:11;;;;;;;16.30;7.85;;;6.50;99.90;;;6.19;60.57;97849.03;4960925;28;20042;-85
2022/01/06 08:43:37;;;;;;;11.50;6.90;;;6.40;99.90;;;6.20;61.02;97849.84;4978301;28;20034;-85
2022/01/06 08:46:03;;;;;;;12.50;6.85;;;6.40;99.90;;;6.25;59.63;97856.03;4977705;28;20053;-85
2022/01/06 08:48:31;;;;;;;16.13;6.80;;;6.50;99.90;;;6.39;59.74;97850.13;4961328;28;20078;-85
2022/01/06 08:50:57;;;;;;;10.48;5.78;;;6.50;99.90;;;6.43;59.73;97845.81;4962785;28;20046;-85
2022/01/06 08:53:23;;;;;;;10.27;6.03;;;6.60;99.90;;;6.46;60.11;97862.25;4978120;28;20073;-85
2022/01/06 08:55:49;;;;;;;12.45;6.03;;;6.70;99.90;;;6.62;59.27;97857.66;4945909;28;20050;-84
2022/01/06 08:58:15;;;;;;;16.10;6.78;;;6.80;99.90;;;6.66;59.34;97860.59;4959910;28;20446;-85
2022/01/06 09:00:41;;;;;;;15.77;6.65;;;6.80;99.90;;;6.68;58.64;97864.66;4961332;28;20042;-84
2022/01/06 09:03:08;;;;;;;19.10;7.30;;;6.90;99.90;;;6.74;58.63;97868.97;4959209;28;20338;-85
2022/01/06 09:05:36;;;;;;;12.82;6.38;;;6.90;99.90;;;6.87;58.86;97874.84;4947625;28;20423;-84
2022/01/06 09:08:04;;;;;;;10.48;5.90;;;7.00;99.90;;;7.01;58.56;97870.53;4956436;28;20047;-84
2022/01/06 09:10:32;;;;;;;10.48;6.03;;;7.00;99.90;;;7.03;57.50;97870.28;4978505;28;20042;-84
2022/01/06 09:12:58;;;;;;;11.75;6.32;;;7.10;99.90;;;7.08;57.26;97875.66;4975156;28;20497;-84
2022/01/06 09:15:24;;;;;;;10.10;6.32;;;7.20;99.90;;;6.93;56.82;97863.00;4963480;28;20046;-85
2022/01/06 09:17:50;;;;;;;13.30;6.30;;;7.20;99.90;;;6.87;57.17;97869.47;4962135;28;20061;-84
2022/01/06 09:20:16;;;;;;;12.40;6.30;;;7.10;99.90;;;6.79;57.25;97870.03;4956577;28;20434;-84
2022/01/06 09:22:43;;;;;;;15.07;6.22;;;6.90;99.90;;;6.67;56.65;97870.31;4973907;28;20125;-85
2022/01/06 09:25:10;;;;;;;10.40;5.80;;;6.80;99.90;;;6.49;57.00;97863.59;4960839;28;20038;-85
2022/01/06 09:27:36;;;;;;;13.93;7.15;;;6.70;99.90;;;6.41;57.16;97862.25;4977853;28;20081;-85
2022/01/06 09:30:02;;;;;;;12.32;5.75;;;6.50;99.90;;;6.32;57.24;97874.63;4958374;28;20116;-85
2022/01/06 09:32:28;;;;;;;9.70;4.95;;;6.40;99.90;;;6.22;57.57;97875.41;4973430;28;20053;-85
2022/01/06 09:34:54;;;;;;;20.08;6.97;;;6.40;99.90;;;6.15;57.32;97879.44;4956719;28;20104;-85
2022/01/06 09:37:20;;;;;;;9.70;5.47;;;6.30;99.90;;;6.22;57.94;97880.81;4935335;28;20369;-85
2022/01/06 09:39:47;;;;;;;11.88;5.93;;;6.30;99.90;;;6.62;56.04;97873.81;4936854;28;20062;-85
2022/01/06 09:42:14;;;;;;;14.93;6.20;;;6.50;99.90;;;7.13;55.78;97867.53;4968390;28;20386;-85
2022/01/06 09:44:40;;;;;;;14.38;6.03;;;6.90;99.90;;;7.35;54.70;97869.88;4968684;28;20042;-85
2022/01/06 09:47:07;;;;;;;12.00;5.65;;;7.40;99.90;;;7.61;53.78;97868.72;4951563;28;20165;-85
2022/01/06 09:49:42;;;;;;;14.40;5.13;;;7.60;99.90;;;7.64;52.22;97861.97;4986049;28;20380;-85
2022/01/06 09:52:08;;;;;;;10.95;6.32;;;7.80;99.90;;;7.81;52.58;97872.38;4968256;28;20042;-85
2022/01/06 09:54:37;;;;;;;13.40;6.05;;;7.80;99.90;;;7.90;52.97;97869.91;4968248;28;20078;-85
2022/01/06 09:57:04;;;;;;;11.68;5.65;;;8.00;99.90;;;7.88;52.32;97867.50;4986639;28;20588;-85
2022/01/06 09:59:30;;;;;;;9.75;4.72;;;8.00;99.90;;;7.67;52.84;97861.41;4940996;28;20042;-85
2022/01/06 10:01:58;;;;;;;13.35;6.20;;;7.90;99.90;;;7.46;53.12;97860.69;4972728;28;20044;-85
2022/01/06 10:04:28;;;;;;;16.13;4.38;;;7.70;99.90;;;7.38;52.71;97874.75;4962742;28;20336;-85
2022/01/06 10:07:21;;;;;;;12.32;3.92;;;7.60;99.90;;;7.21;53.67;97869.69;4957007;28;20485;-85
2022/01/06 10:09:47;;;;;;;14.05;7.57;;;7.40;99.90;;;7.09;53.87;97882.66;4966218;28;20193;-85
2022/01/06 10:12:13;;;;;;;10.95;5.38;;;7.30;99.90;;;6.80;55.20;97885.94;4966679;28;20062;-85
2022/01/06 10:14:47;;;;;;;14.05;5.50;;;7.00;99.90;;;6.36;56.87;97904.50;4950435;28;20046;-85
2022/01/06 10:17:29;;;;;;;15.98;7.75;;;6.60;99.90;;;6.21;57.29;97894.56;4957422;28;20066;-85
2022/01/06 10:19:55;;;;;;;18.30;7.88;;;6.40;99.90;;;6.24;56.80;97902.91;4973065;28;20053;-85
2022/01/06 10:22:22;;;;;;;23.25;6.97;;;6.40;99.90;;;6.26;56.32;97897.25;4952073;28;20042;-85
2022/01/06 10:24:49;;;;;;;13.07;7.03;;;6.40;99.90;;;6.30;55.90;97906.41;4950393;28;20047;-85
2022/01/06 10:27:20;;;;;;;12.27;6.85;;;6.40;99.90;;;6.33;56.01;97908.56;4949698;28;20089;-85
2022/01/06 10:29:51;;;;;;;18.15;6.75;;;6.30;99.90;;;6.41;55.55;97909.91;4948287;28;20133;-85
2022/01/06 10:32:19;;;;;;;13.05;5.65;;;6.50;99.90;;;6.53;54.80;97891.59;4969144;28;20457;-85
2022/01/06 10:34:52;;;;;;;6.38;4.68;;;6.60;99.90;;;6.63;52.96;97906.97;4951222;28;20054;-85
2022/01/06 10:37:24;;;;;;;9.90;4.80;;;6.70;99.90;;;6.82;53.83;97920.69;4939042;28;20046;-86
2022/01/06 10:39:54;;;;;;;8.85;4.53;;;6.90;99.90;;;7.15;53.53;97906.66;4984852;28;20077;-86